• Join FlightAware (Why Join?)
  • Login
  • US Flag 
01:32AM EDT


 

Airport Tracker/Info


-or-


 

Live Flight TrackerFlight Track Log ✈ UAL4543 ✈ 14-Apr-2013 ✈ KRDU - KEWR

Flight Track Log - Related Links

Times and Time Zones

All times are in EDT time to prevent confusion due to time zone crossing. See the UAL4543 flight status page for this flight to view local times or setup timezone preferences in your user account.

Time Position Orientation Groundspeed Altitude Reporting Facility
EDT Latitude Longitude Course Direction KTS MPH feet Rate Location/Type
03:16PM 35.8664 -78.8164 11° North 184 212 1,100  Level Washington Center
03:16PM 35.8469 -78.8439 229° Southwest 186 214 2,200 2,100 Climbing Washington Center
03:17PM 35.8306 -78.9097 253° West 265 305 4,400 2,580 Climbing Washington Center
03:18PM 35.8939 -78.9533 331° Northwest 275 316 7,400 2,760 Climbing Washington Center
03:19PM 36.1999 -78.6548 19° North  Level FlightAware Approximate
03:19PM 35.9689 -78.9567 358° North 266 306 10,000  Level Washington Center
03:20PM 36.2837 -78.6221 15° North  Level FlightAware Approximate
03:20PM 36.0436 -78.8956 33° Northeast 274 315 11,700  Level Washington Center
03:21PM 36.3689 -78.5953 11° North  Level FlightAware Approximate
03:21PM 36.1269 -78.8297 33° Northeast 304 350 13,000  Level Washington Center
03:22PM 36.2144 -78.7558 34° Northeast 356 410 14,500 1,560 Climbing Washington Center
03:23PM 36.3039 -78.6822 34° Northeast 385 443 16,200 1,500 Climbing Washington Center
03:24PM 36.3975 -78.6111 31° Northeast 390 449 17,600 1,380 Climbing Washington Center
03:25PM 36.5011 -78.5608 21° North 390 449 19,000 1,320 Climbing Washington Center
03:26PM 36.6128 -78.5211 16° North 398 458 20,300 1,260 Climbing Washington Center
03:27PM 36.7222 -78.4786 17° North 408 470 21,600 1,140 Climbing Washington Center
03:28PM 36.8175 -78.4172 27° Northeast 413 475 22,600 1,140 Climbing Washington Center
03:29PM 36.9175 -78.3353 33° Northeast 418 481 23,900 1,200 Climbing Washington Center
03:30PM 37.0194 -78.2506 34° Northeast 431 496 25,000 540 Climbing Washington Center
03:31PM 37.1364 -78.1556 33° Northeast 451 519 25,000  Level Washington Center
03:32PM 37.2425 -78.0678 33° Northeast 451 519 25,000  Level Washington Center
03:33PM 37.3464 -77.9822 33° Northeast 451 519 25,000  Level Washington Center
03:34PM 37.4439 -77.8989 34° Northeast 434 499 25,000  Level Washington Center
03:35PM 37.5372 -77.8206 34° Northeast 423 487 25,000  Level Washington Center
03:36PM 37.6267 -77.8442 348° North 317 365 25,000  Level Washington Center
03:37PM 37.5958 -77.9167 242° Southwest 111 128 25,000  Level Washington Center
03:38PM 37.5203 -77.9536 201° Southwest 153 176 25,000  Level Washington Center
03:39PM 37.4425 -77.9825 196° South 228 262 25,000  Level Washington Center
03:40PM 37.3961 -77.8922 123° Southeast 215 247 25,000  Level Washington Center
03:41PM 37.4639 -77.8367 33° Northeast 141 162 25,000  Level Washington Center
03:42PM 37.5458 -77.8103 14° North 229 264 25,000  Level Washington Center
03:43PM 37.5908 -77.8589 319° Northwest 173 199 25,000  Level Washington Center
03:44PM 37.5725 -77.9447 255° West 157 181 25,000  Level Washington Center
03:45PM 37.5192 -78.0086 224° Southwest 197 227 25,000  Level Washington Center
03:46PM 37.4472 -78.0508 205° Southwest 254 292 25,000  Level Washington Center
03:47PM 37.3906 -77.9731 133° Southeast 212 244 25,000  Level Washington Center
03:48PM 37.4506 -77.8861 49° Northeast 167 192 25,000  Level Washington Center
03:49PM 37.5289 -77.8283 30° Northeast 228 262 25,000  Level Washington Center
03:50PM 37.6083 -77.8175 North 252 290 25,000  Level Washington Center
03:51PM 37.6361 -77.8969 294° West 197 227 25,000  Level Washington Center
03:52PM 37.5889 -77.9636 228° Southwest 197 227 25,000  Level Washington Center
03:53PM 37.5231 -78.0167 213° Southwest 224 258 25,000  Level Washington Center
03:54PM 37.4553 -78.0614 208° Southwest 266 306 25,000  Level Washington Center
03:56PM 37.5117 -78.0050 38° Northeast  Level FlightAware Approximate
03:56PM 37.4314 -77.9089 38° Northeast 167 192 25,000  Level Washington Center
03:57PM 37.5033 -77.8458 35° Northeast 236 272 25,000  Level Washington Center
03:58PM 37.5792 -77.8086 21° North 248 285 25,000  Level Washington Center
03:59PM 37.6261 -77.8731 313° West 202 232 25,000  Level Washington Center
04:00PM 37.5933 -77.9506 242° Southwest 155 178 25,000  Level Washington Center
04:01PM 37.5183 -77.9378 172° South 164 189 25,000  Level Washington Center
04:02PM 37.5269 -77.8150 85° East 172 198 25,000  Level Washington Center
04:03PM 37.6139 -77.7311 37° Northeast 234 269 25,000  Level Washington Center
04:04PM 37.7072 -77.6444 36° Northeast 338 389 25,000  Level Washington Center
04:05PM 37.8067 -77.5578 35° Northeast 386 444 25,000  Level Washington Center
04:06PM 37.9083 -77.4683 35° Northeast 425 489 25,000  Level Washington Center
04:07PM 38.0119 -77.3761 35° Northeast 443 510 25,000  Level Washington Center
04:08PM 38.1133 -77.2833 36° Northeast 448 516 25,000  Level Washington Center
04:09PM 38.2169 -77.1906 35° Northeast 454 522 25,000  Level Washington Center
04:10PM 38.3222 -77.0975 35° Northeast 454 522 25,000  Level Washington Center
04:11PM 38.4278 -76.9989 36° Northeast 459 528 25,000  Level Washington Center
04:12PM 38.5331 -76.9056 35° Northeast 459 528 25,000  Level Washington Center
04:13PM 38.6361 -76.8089 36° Northeast 459 528 25,000  Level Washington Center
04:14PM 38.7394 -76.7094 37° Northeast 459 528 25,000  Level Washington Center
04:15PM 38.8319 -76.5989 43° Northeast 459 528 25,000  Level Washington Center
04:16PM 38.9289 -76.4881 42° Northeast 459 528 25,000  Level Washington Center
04:17PM 39.0256 -76.3772 42° Northeast 459 528 25,000  Level Washington Center
04:18PM 39.1219 -76.2658 42° Northeast 459 528 25,000  Level Washington Center
04:19PM 39.2267 -76.1436 42° Northeast 459 528 25,000  Level Washington Center
04:20PM 39.3211 -76.0317 43° Northeast 464 534 25,000  Level Washington Center
04:21PM 39.4172 -75.9192 42° Northeast 464 534 25,000  Level Washington Center
04:22PM 39.5133 -75.8042 43° Northeast 464 534 25,000 -480 Level Washington Center
04:23PM 39.6094 -75.6939 41° Northeast 464 534 24,100 -1,320 Descending Washington Center
04:24PM 39.7031 -75.5808 43° Northeast 464 534 22,400 -2,040 Descending Washington Center
04:25PM 39.7969 -75.4672 43° Northeast 464 534 20,100 -2,340 Descending Washington Center
04:26PM 39.8739 -75.3725 43° Northeast 452 520 17,800 -2,460 Descending Washington Center
04:27PM 39.9547 -75.2722 44° Northeast 421 484 15,200 -2,580 Descending Washington Center
04:28PM 40.0317 -75.1797 43° Northeast 389 448 12,700 -1,800 Descending Washington Center
04:30PM 40.1500 -75.0333 43° Northeast 309 356 10,600 -1,560 Descending New York TRACON
04:31PM 40.2167 -74.9667 37° Northeast 300 345 8,600 -1,380 Descending New York TRACON
04:32PM 40.2667 -74.8833 52° Northeast 293 337 8,000 -360 Descending New York TRACON
04:33PM 40.3167 -74.8000 52° Northeast 307 353 8,000 -360 Level New York TRACON
04:34PM 40.3500 -74.7000 66° East 307 353 7,300 -840 Descending New York TRACON
04:35PM 40.3833 -74.6000 66° East 298 343 6,400 -1,200 Descending New York TRACON
04:36PM 40.4000 -74.5000 78° East 283 326 4,900 -1,200 Descending New York TRACON
04:37PM 40.4167 -74.4000 78° East 257 296 4,000 -480 Descending New York TRACON
04:38PM 40.4333 -74.3333 72° East 198 228 4,000 -60 Level New York TRACON
04:39PM 40.4833 -74.3000 27° Northeast 196 226 3,900 -300 Descending New York TRACON
04:40PM 40.5333 -74.2667 27° Northeast 181 208 3,500 -720 Descending New York TRACON
04:41PM 40.5667 -74.2333 37° Northeast 176 203 2,400 -960 Descending New York TRACON
04:42PM 40.6167 -74.2167 14° North 167 192 1,500 -900 Descending New York TRACON